Latest Weather Observations for Yarram Airport

IDV60801

Issued at 2:05 pm EST Tuesday 29 July 2014 (issued every 30 minutes, with the page automatically refreshed every 10 minutes)

About weather observations | Map of weather stations | Latest weather observations for VIC | Other Formats
Station Details ID: 085151 Name: YARRAM AIRPORT Lat: -38.56 Lon: 146.75 Height: 17.9 m
Data from the previous 72 hours. | See also: Recent months at Yarram Airport
Date/Time
EST
Temp
°C
App
Temp
°C
Dew
Point
Rel
Hum
%
Delta-T
°C
Wind Press
QNH
hPa
Press
MSL
hPa
Rain
since 9 am
mm
Dir
 
Spd
km/h
Gust
km/h
Spd
kts
Gust
kts
29/02:00pm 16.1 6.1 7.8 58 4.2 NW 50 76 27 41 1003.3 1003.3 0.0
29/01:30pm 16.0 5.8 8.5 61 3.8 NW 52 74 28 40 1003.2 - 0.0
29/01:00pm 15.9 6.8 8.4 61 3.8 NW 46 70 25 38 1003.5 1003.5 0.0
29/12:37pm 15.5 6.8 8.3 62 3.6 NW 44 63 24 34 1004.3 - 0.0
29/12:30pm 15.6 5.9 7.6 59 4.0 NW 48 63 26 34 1004.3 - 0.0
29/12:00pm 15.9 6.2 7.7 58 4.1 NW 48 69 26 37 1004.8 1004.8 0.0
29/11:30am 15.8 7.1 7.6 58 4.1 NW 43 67 23 36 1005.0 - 0.0
29/11:00am 16.1 6.1 7.8 58 4.2 NW 50 72 27 39 1005.0 1005.0 0.0
29/10:30am 15.6 6.8 7.9 60 3.9 NW 44 65 24 35 1005.1 - 0.0
29/10:03am 15.4 5.3 7.4 59 4.0 NW 50 69 27 37 1005.6 - 0.0
29/10:00am 15.8 6.1 7.3 57 4.2 NW 48 65 26 35 1005.7 1005.7 0.0
29/09:30am 15.4 6.1 7.4 59 4.0 NW 46 70 25 38 1005.7 - 0.0
29/09:08am 15.2 5.4 7.2 59 3.9 NW 48 67 26 36 1006.0 - 0.0
29/09:00am 15.2 5.0 7.0 58 4.0 NW 50 67 27 36 1006.1 1006.1 0.0
29/08:47am 14.8 4.6 6.9 59 3.9 NW 50 69 27 37 1006.0 - 0.0
29/08:30am 14.4 3.9 7.5 63 3.4 NW 52 69 28 37 1006.1 - 0.0
29/08:00am 14.0 4.7 7.5 65 3.2 NW 46 76 25 41 1006.2 1006.2 0.0
29/07:51am 14.4 4.6 7.0 61 3.6 NW 48 76 26 41 1006.2 - 0.0
29/07:31am 14.2 6.0 6.6 60 3.7 NW 39 57 21 31 1006.6 - 0.0
29/07:30am 14.6 6.1 6.9 60 3.8 NW 41 57 22 31 1006.5 - 0.0
29/07:03am 14.6 5.0 6.4 58 4.0 NW 46 65 25 35 1006.7 - 0.0
29/07:00am 14.4 5.4 6.5 59 3.8 NW 43 57 23 31 1006.6 1006.6 0.0
29/06:33am 14.4 6.5 6.3 58 3.9 WNW 37 56 20 30 1006.6 - 0.0
29/06:30am 14.5 6.6 6.3 58 3.9 NW 37 54 20 29 1006.6 - 0.0
29/06:00am 14.3 6.4 6.2 58 3.9 NW 37 61 20 33 1006.6 1006.6 0.0
29/05:30am 14.1 7.0 5.7 57 4.0 NW 32 56 17 30 1006.7 - 0.0
29/05:24am 14.2 6.6 5.8 57 4.0 NW 35 56 19 30 1006.8 - 0.0
29/05:00am 14.0 7.0 5.9 58 3.9 NW 32 48 17 26 1007.1 1007.1 0.0
29/04:30am 14.0 6.9 5.6 57 4.0 NNW 32 50 17 27 1006.8 - 0.0
29/04:00am 13.8 6.2 5.7 58 3.8 NW 35 54 19 29 1007.3 1007.3 0.0
29/03:51am 13.8 6.7 5.4 57 3.9 NW 32 54 17 29 1007.2 - 0.0
29/03:30am 13.3 6.6 5.7 60 3.6 NW 30 43 16 23 1007.4 - 0.0
29/03:09am 14.0 6.0 5.6 57 4.0 NW 37 61 20 33 1007.7 - 0.0
29/03:00am 14.0 5.6 5.6 57 4.0 NW 39 54 21 29 1007.8 1007.8 0.0
29/02:34am 13.8 6.7 5.4 57 3.9 NW 32 50 17 27 1008.5 - 0.0
29/02:30am 13.7 6.0 5.3 57 3.9 NW 35 50 19 27 1008.5 - 0.0
29/02:00am 13.8 5.9 4.4 53 4.3 NW 35 56 19 30 1009.0 1009.1 0.0
29/01:30am 14.0 6.4 4.0 51 4.6 NW 33 52 18 28 1009.0 - 0.0
29/01:10am 14.3 6.4 4.3 51 4.6 NW 35 63 19 34 1009.1 - 0.0
29/01:00am 13.7 5.8 4.3 53 4.3 NW 35 46 19 25 1009.2 1009.3 0.0
29/12:30am 14.2 7.0 4.8 53 4.4 NW 32 44 17 24 1009.7 - 0.0
29/12:00am 14.2 7.4 5.0 54 4.3 NW 30 46 16 25 1010.0 1010.1 0.0
 
Date/Time
EST
Temp
°C
App
Temp
°C
Dew
Point
Rel
Hum
%
Delta-T
°C
Wind Press
QNH
hPa
Press
MSL
hPa
Rain
since 9 am
mm
Dir
 
Spd
km/h
Gust
km/h
Spd
kts
Gust
kts
28/11:30pm 13.6 7.6 5.3 57 3.9 NW 26 35 14 19 1010.4 - 0.0
28/11:00pm 14.1 6.9 5.2 55 4.2 NW 32 41 17 22 1010.3 1010.4 0.0
28/10:30pm 14.1 8.5 5.5 56 4.1 NW 24 35 13 19 1010.8 - 0.0
28/10:00pm 13.9 9.7 5.8 58 3.8 NW 17 32 9 17 1010.7 1010.8 0.0
28/09:30pm 14.0 9.2 5.4 56 4.0 NW 20 30 11 16 1010.9 - 0.0
28/09:00pm 13.9 9.1 5.5 57 4.0 NW 20 30 11 16 1011.0 1011.1 0.0
28/08:30pm 14.1 8.5 5.2 55 4.2 WNW 24 37 13 20 1010.8 - 0.0
28/08:00pm 14.6 8.9 5.1 53 4.5 WNW 24 39 13 21 1010.4 1010.5 0.0
28/07:30pm 14.9 8.7 6.0 55 4.3 NW 28 46 15 25 1010.2 - 0.0
28/07:28pm 15.0 8.7 5.8 54 4.4 NW 28 46 15 25 1010.0 - 0.0
28/07:00pm 14.3 9.6 5.9 57 4.0 WNW 20 26 11 14 1010.5 1010.6 0.0
28/06:30pm 14.7 9.6 5.8 55 4.2 W 22 30 12 16 1010.5 - 0.0
28/06:00pm 15.0 10.3 6.0 55 4.3 NW 20 28 11 15 1010.0 1010.1 0.0
28/05:30pm 13.7 10.8 6.3 61 3.5 NW 11 17 6 9 1010.1 - 0.0
28/05:00pm 15.2 12.0 7.0 58 4.0 WNW 13 20 7 11 1010.4 1010.5 0.0
28/04:30pm 17.5 14.5 7.5 52 5.0 NW 13 20 7 11 1010.2 - 0.0
28/04:00pm 18.1 14.7 7.5 50 5.4 NW 15 20 8 11 1010.0 1010.1 0.0
28/03:30pm 18.3 13.9 7.4 49 5.5 NW 20 32 11 17 1010.1 - 0.0
28/03:00pm 18.7 13.4 6.9 46 5.9 WNW 24 33 13 18 1010.4 1010.5 0.0
28/02:30pm 18.6 11.4 6.1 44 6.2 NW 33 56 18 30 1010.6 - 0.0
28/02:27pm 18.7 12.1 5.9 43 6.3 NW 30 56 16 30 1010.6 - 0.0
28/02:00pm 18.7 12.2 6.5 45 6.1 WNW 30 43 16 23 1010.6 1010.7 0.0
28/01:30pm 18.7 12.9 6.2 44 6.2 NW 26 35 14 19 1011.0 - 0.0
28/01:00pm 18.5 12.7 6.4 45 6.0 NW 26 37 14 20 1011.5 1011.6 0.0
28/12:30pm 18.2 12.4 6.1 45 6.0 NW 26 35 14 19 1012.1 - 0.0
28/12:00pm 18.0 11.9 6.5 47 5.7 NW 28 44 15 24 1012.7 1012.8 0.0
28/11:30am 17.7 12.6 7.7 52 5.1 NW 24 35 13 19 1013.1 - 0.0
28/11:00am 17.2 11.9 5.2 45 5.8 NW 22 41 12 22 1013.5 1013.6 0.0
28/10:30am 16.4 11.6 7.3 55 4.5 NNW 22 35 12 19 1013.9 - 0.0
28/10:00am 15.8 11.1 7.6 58 4.1 NNW 22 44 12 24 1014.1 1014.2 0.0
28/09:30am 15.4 8.3 5.6 52 4.7 NNW 32 44 17 24 1014.1 - 0.0
28/09:00am 14.4 9.4 6.3 58 3.9 NNW 22 37 12 20 1014.3 1014.4 0.0
28/08:30am 13.3 7.9 6.2 62 3.4 N 24 33 13 18 1014.4 - 0.0
28/08:00am 13.5 8.6 5.2 57 3.9 NNW 20 30 11 16 1014.5 1014.6 0.0
28/07:30am 12.9 8.0 5.3 60 3.5 NW 20 32 11 17 1014.8 - 0.0
28/07:00am 11.7 7.8 5.3 65 2.9 NW 15 22 8 12 1014.8 1014.9 0.0
28/06:30am 11.1 7.9 5.0 66 2.8 NW 11 20 6 11 1014.8 - 0.0
28/06:00am 12.2 7.0 5.6 64 3.1 NNW 22 30 12 16 1014.7 1014.8 0.0
28/05:30am 12.1 7.8 5.3 63 3.1 NNW 17 22 9 12 1014.8 - 0.0
28/05:00am 12.1 7.4 5.3 63 3.1 NNW 19 26 10 14 1014.8 1014.9 0.0
28/04:30am 11.5 7.2 5.4 66 2.8 NNW 17 20 9 11 1015.0 - 0.0
28/04:00am 11.6 8.5 5.5 66 2.8 WNW 11 15 6 8 1015.4 1015.5 0.0
28/03:30am 12.4 7.3 5.8 64 3.1 NW 22 32 12 17 1015.6 - 0.0
28/03:00am 10.8 7.8 5.8 71 2.3 NW 11 19 6 10 1015.9 1016.0 0.0
28/02:30am 10.6 8.2 5.4 70 2.4 NNW 7 13 4 7 1016.3 - 0.0
28/02:00am 11.3 8.3 5.8 69 2.5 NW 11 20 6 11 1016.5 1016.6 0.0
28/01:30am 9.0 6.2 5.0 76 1.8 N 9 11 5 6 1016.8 - 0.0
28/01:00am 10.1 7.6 4.9 70 2.3 NW 7 9 4 5 1017.2 1017.3 0.0
28/12:30am 11.9 8.5 5.8 66 2.8 NNW 13 22 7 12 1017.4 - 0.0
28/12:00am 11.0 7.5 5.5 69 2.5 NNW 13 20 7 11 1017.5 1017.6 0.0
 
Date/Time
EST
Temp
°C
App
Temp
°C
Dew
Point
Rel
Hum
%
Delta-T
°C
Wind Press
QNH
hPa
Press
MSL
hPa
Rain
since 9 am
mm
Dir
 
Spd
km/h
Gust
km/h
Spd
kts
Gust
kts
27/11:30pm 11.8 8.1 6.3 69 2.6 NW 15 22 8 12 1018.1 - 0.0
27/11:00pm 11.2 7.8 5.9 70 2.5 NNW 13 22 7 12 1018.4 1018.5 0.0
27/10:30pm 8.2 4.6 4.8 79 1.5 N 13 17 7 9 1018.9 - 0.0
27/10:00pm 9.9 6.5 5.7 75 1.9 NNW 13 17 7 9 1019.2 1019.3 0.0
27/09:30pm 10.4 6.8 5.2 70 2.4 NNW 13 19 7 10 1019.3 - 0.0
27/09:00pm 10.1 5.9 5.9 75 1.9 N 17 20 9 11 1019.3 1019.4 0.0
27/08:30pm 10.2 6.1 6.0 75 1.9 NW 17 20 9 11 1019.7 - 0.0
27/08:00pm 12.4 8.0 6.5 67 2.8 WNW 19 28 10 15 1019.7 1019.8 0.0
27/07:30pm 12.0 8.0 6.5 69 2.6 NW 17 20 9 11 1019.7 - 0.0
27/07:00pm 12.5 8.2 6.8 68 2.7 NW 19 24 10 13 1019.5 1019.6 0.0
27/06:30pm 12.3 8.0 7.0 70 2.5 NW 19 26 10 14 1019.6 - 0.0
27/06:00pm 12.6 9.1 7.3 70 2.6 NNW 15 20 8 11 1019.8 1019.9 0.0
27/05:30pm 12.3 9.2 7.4 72 2.4 NNW 13 19 7 10 1019.6 - 0.0
27/05:00pm 13.1 9.4 7.8 70 2.6 WNW 17 24 9 13 1019.9 1020.0 0.0
27/04:30pm 13.2 10.8 8.7 74 2.3 WNW 11 15 6 8 1019.8 - 0.0
27/04:00pm 13.7 11.4 9.0 73 2.4 WNW 11 13 6 7 1019.8 1019.9 0.0
27/03:30pm 14.4 12.4 8.8 69 2.8 WNW 9 11 5 6 1019.6 - 0.0
27/03:00pm 14.7 11.8 8.2 65 3.2 WNW 13 17 7 9 1019.7 1019.8 0.0
27/02:30pm 14.8 9.3 7.4 61 3.7 WNW 26 33 14 18 1019.6 - 0.0
27/02:00pm 15.4 11.7 7.9 61 3.7 WNW 17 22 9 12 1020.1 1020.2 0.0
27/01:30pm 14.9 10.7 7.5 61 3.7 NW 19 26 10 14 1020.3 - 0.0
27/01:00pm 14.7 10.5 8.2 65 3.2 WNW 20 26 11 14 1020.6 1020.7 0.0
27/12:30pm 15.0 11.1 8.7 66 3.2 WNW 19 26 10 14 1021.2 - 0.0
27/12:00pm 14.8 11.2 8.3 65 3.3 WNW 17 28 9 15 1021.9 1022.0 0.0
27/11:30am 14.6 10.2 8.8 68 2.9 WNW 22 32 12 17 1022.6 - 0.0
27/11:00am 14.1 10.1 9.1 72 2.5 WNW 20 28 11 15 1023.3 1023.4 0.0
27/10:30am 13.7 9.9 9.0 73 2.4 WNW 19 24 10 13 1023.6 - 0.0
27/10:00am 12.9 10.1 8.6 75 2.1 W 13 22 7 12 1023.8 1023.9 0.0
27/09:30am 11.8 10.3 9.0 83 1.4 W 7 13 4 7 1023.9 - 0.0
27/09:00am 11.3 9.9 9.4 88 0.9 W 7 9 4 5 1023.8 1023.9 0.8
27/08:30am 10.4 8.9 8.5 88 0.9 NW 6 9 3 5 1023.9 - 0.8
27/08:00am 9.8 6.7 8.7 93 0.5 W 15 17 8 9 1023.8 1023.9 0.8
27/07:30am 9.4 6.6 8.5 94 0.4 WNW 13 15 7 8 1023.7 - 0.8
27/07:00am 10.6 8.0 9.4 92 0.6 NW 13 17 7 9 1023.4 1023.5 0.8
27/06:30am 11.1 8.7 10.0 93 0.6 W 13 17 7 9 1023.2 - 0.8
27/06:00am 10.9 8.1 10.0 94 0.5 W 15 19 8 10 1023.0 1023.1 0.8
27/05:30am 10.3 7.8 9.8 97 0.3 WNW 13 15 7 8 1022.9 - 0.6
27/05:00am 8.9 6.8 8.3 96 0.3 W 9 11 5 6 1022.9 1023.0 0.6
27/04:30am 9.8 7.2 9.2 96 0.3 W 13 15 7 8 1022.9 - 0.6
27/04:00am 10.7 7.8 9.8 94 0.5 W 15 17 8 9 1022.9 1023.0 0.6
27/03:30am 10.4 8.0 10.2 99 0.1 WNW 13 17 7 9 1023.0 - 0.6
27/03:00am 9.4 8.4 8.8 96 0.3 WNW 4 9 2 5 1022.9 1023.0 0.6
27/02:30am 10.3 8.6 9.8 97 0.3 W 9 13 5 7 1023.2 - 0.6
27/02:00am 10.2 9.1 9.9 98 0.2 NW 6 6 3 3 1023.2 1023.3 0.6
27/01:30am 10.5 9.3 10.2 98 0.2 NW 7 9 4 5 1023.3 - 0.6
27/01:00am 10.9 9.7 10.4 97 0.3 WNW 7 11 4 6 1023.3 1023.4 0.6
27/12:30am 10.7 9.2 10.4 98 0.2 W 9 11 5 6 1023.6 - 0.6
27/12:00am 10.1 8.0 9.8 98 0.1 WNW 11 13 6 7 1023.4 1023.5 0.6
 
Date/Time
EST
Temp
°C
App
Temp
°C
Dew
Point
Rel
Hum
%
Delta-T
°C
Wind Press
QNH
hPa
Press
MSL
hPa
Rain
since 9 am
mm
Dir
 
Spd
km/h
Gust
km/h
Spd
kts
Gust
kts
26/11:30pm 10.0 7.5 9.7 98 0.2 W 13 17 7 9 1023.6 - 0.6
26/11:00pm 9.9 6.9 9.4 97 0.2 W 15 19 8 10 1023.7 1023.8 0.6
26/10:30pm 10.0 7.1 9.5 97 0.2 W 15 19 8 10 1023.5 - 0.6
26/10:00pm 10.3 7.4 9.8 97 0.3 W 15 17 8 9 1023.5 1023.6 0.6
26/09:30pm 10.9 7.8 10.4 97 0.3 W 17 20 9 11 1023.4 - 0.6
26/09:00pm 10.3 7.4 9.8 97 0.3 W 15 17 8 9 1023.1 1023.2 0.6
26/08:30pm 10.9 8.6 10.4 97 0.3 WNW 13 17 7 9 1022.9 - 0.6
26/08:00pm 11.3 7.9 10.7 96 0.3 WNW 19 24 10 13 1022.6 1022.7 0.4
26/07:30pm 11.6 9.1 11.0 96 0.3 WNW 15 17 8 9 1022.6 - 0.4
26/07:00pm 11.7 9.5 10.9 95 0.4 WSW 13 17 7 9 1022.5 1022.6 0.4
26/06:30pm 12.5 9.8 10.4 87 1.1 W 15 20 8 11 1022.1 - 0.0
26/06:00pm 12.6 9.5 10.3 86 1.2 W 17 22 9 12 1021.7 1021.8 0.0
26/05:30pm 12.6 8.9 10.3 86 1.2 W 20 26 11 14 1021.4 - 0.0
26/05:00pm 12.8 9.1 10.3 85 1.3 W 20 28 11 15 1021.2 1021.3 0.0
26/04:30pm 13.4 9.3 10.2 81 1.7 W 22 32 12 17 1020.9 - 0.0
26/04:00pm 13.8 9.3 10.2 79 1.9 W 24 39 13 21 1020.5 1020.6 0.0
26/03:30pm 13.6 8.9 10.6 82 1.6 W 26 35 14 19 1020.5 - 0.0
26/03:00pm 14.2 9.8 10.4 78 2.0 W 24 33 13 18 1020.3 1020.4 0.0
26/02:30pm 14.2 9.2 10.8 80 1.8 W 28 35 15 19 1020.1 - 0.0

Other Formats:

Comma delimited format used in spreadsheet applications
http://www.bom.gov.au/fwo/IDV60801/IDV60801.95890.axf

JavaScript Object Notation format (JSON) in row-major order
http://www.bom.gov.au/fwo/IDV60801/IDV60801.95890.json